Time;durP1;ratioP1;P1;durP2;ratioP2;P2;SDS_P1;SDS_P2;PMS_P1;PMS_P2;Temp;Humidity;BMP_temperature;BMP_pressure;BME280_temperature;BME280_humidity;BME280_pressure;Samples;Min_cycle;Max_cycle;Signal;HPM_P1;HPM_P2
2023/05/23 00:04:32;;;;;;;;;;;14.70;99.90;;;;;;20909423;28;19916;-75
2023/05/23 00:14:34;;;;;;;;;;;14.70;99.90;;;;;;20909108;28;19927;-75
2023/05/23 00:24:34;;;;;;;;;;;14.40;99.90;;;;;;20908419;28;19913;-75
2023/05/23 00:34:36;;;;;;;;;;;14.20;99.90;;;;;;20907699;28;19953;-75
2023/05/23 00:44:37;;;;;;;;;;;14.00;99.90;;;;;;20889517;28;19916;-75
2023/05/23 00:54:38;;;;;;;;;;;14.00;99.90;;;;;;20888709;28;19912;-75
2023/05/23 01:04:38;;;;;;;;;;;14.00;99.90;;;;;;20906161;28;20130;-75
2023/05/23 01:14:53;;;;;;;;;;;13.70;99.90;;;;;;20900579;28;19977;-75
2023/05/23 01:24:56;;;;;;;;;;;13.90;99.90;;;;;;20907034;28;20317;-75
2023/05/23 01:34:58;;;;;;;;;;;13.50;99.90;;;;;;20912071;28;19913;-75
2023/05/23 01:44:59;;;;;;;;;;;13.50;99.90;;;;;;20916397;28;19913;-74
2023/05/23 01:54:59;;;;;;;;;;;13.50;99.90;;;;;;20892810;28;20373;-75
2023/05/23 02:05:00;;;;;;;;;;;13.30;99.90;;;;;;20901595;28;20022;-75
2023/05/23 02:15:01;;;;;;;;;;;13.30;99.90;;;;;;20912711;28;19916;-75
2023/05/23 02:25:02;;;;;;;;;;;13.00;99.90;;;;;;20899681;28;19913;-75
2023/05/23 02:35:03;;;;;;;;;;;12.90;99.90;;;;;;20916327;28;19920;-75
2023/05/23 02:45:04;;;;;;;;;;;12.70;99.90;;;;;;20921986;28;19920;-74
2023/05/23 02:55:05;;;;;;;;;;;12.80;99.90;;;;;;20958645;28;19912;-75
2023/05/23 03:05:12;;;;;;;;;;;12.80;99.90;;;;;;20924029;28;20330;-75
2023/05/23 03:15:13;;;;;;;;;;;12.60;99.90;;;;;;20927820;28;20003;-75
2023/05/23 03:25:16;;;;;;;;;;;12.50;99.90;;;;;;20911425;28;20306;-75
2023/05/23 03:35:16;;;;;;;;;;;12.50;99.90;;;;;;20911064;28;19948;-75
2023/05/23 03:45:17;;;;;;;;;;;12.50;99.90;;;;;;20889585;28;19963;-74
2023/05/23 03:55:23;;;;;;;;;;;12.40;99.90;;;;;;20899945;28;19912;-74
2023/05/23 04:05:24;;;;;;;;;;;12.60;99.90;;;;;;20956905;28;19913;-75
2023/05/23 04:15:26;;;;;;;;;;;13.00;99.90;;;;;;20886085;28;19913;-75
2023/05/23 04:25:39;;;;;;;;;;;12.90;99.90;;;;;;20881450;28;20603;-74
2023/05/23 04:35:48;;;;;;;;;;;12.90;99.90;;;;;;20880103;28;20303;-75
2023/05/23 04:45:49;;;;;;;;;;;13.30;99.90;;;;;;20884833;28;19925;-75
2023/05/23 04:56:08;;;;;;;;;;;13.60;99.90;;;;;;20883929;28;19912;-75
2023/05/23 05:06:11;;;;;;;;;;;13.80;99.90;;;;;;20883973;28;19913;-75
2023/05/23 05:16:12;;;;;;;;;;;14.00;99.90;;;;;;20883355;28;19919;-75
2023/05/23 05:26:13;;;;;;;;;;;14.40;99.90;;;;;;20901365;28;19908;-75
2023/05/23 05:36:14;;;;;;;;;;;14.80;99.90;;;;;;20896118;28;19912;-76
2023/05/23 05:46:15;;;;;;;;;;;15.20;99.90;;;;;;20879430;28;20306;-76
2023/05/23 05:56:16;;;;;;;;;;;15.80;99.90;;;;;;20882131;28;19920;-76
2023/05/23 06:06:17;;;;;;;;;;;15.90;99.90;;;;;;20885145;28;20379;-76
2023/05/23 06:16:18;;;;;;;;;;;16.20;99.90;;;;;;20896334;28;19920;-76
2023/05/23 06:26:19;;;;;;;;;;;16.60;99.90;;;;;;20895956;28;19956;-76
2023/05/23 06:36:20;;;;;;;;;;;17.40;99.90;;;;;;20878473;28;19912;-76
2023/05/23 06:46:22;;;;;;;;;;;17.50;99.90;;;;;;20912384;28;19920;-76
2023/05/23 06:56:23;;;;;;;;;;;17.80;99.90;;;;;;20893349;28;20352;-76
2023/05/23 07:06:30;;;;;;;;;;;18.40;99.90;;;;;;20892589;28;19913;-76
2023/05/23 07:16:31;;;;;;;;;;;19.30;99.90;;;;;;20892025;28;19948;-76
2023/05/23 07:26:36;;;;;;;;;;;19.60;99.90;;;;;;20892825;28;19908;-77
2023/05/23 07:36:39;;;;;;;;;;;18.90;99.90;;;;;;20874204;28;20015;-77
2023/05/23 07:46:43;;;;;;;;;;;19.30;99.90;;;;;;20889708;28;19916;-77
2023/05/23 07:56:44;;;;;;;;;;;20.30;99.90;;;;;;20889212;28;19913;-77
2023/05/23 08:06:48;;;;;;;;;;;20.00;99.90;;;;;;20888172;28;20005;-77
2023/05/23 08:16:49;;;;;;;;;;;19.90;99.90;;;;;;20887840;28;19913;-76
2023/05/23 08:26:55;;;;;;;;;;;19.80;99.90;;;;;;20887254;28;19939;-77
2023/05/23 08:36:56;;;;;;;;;;;19.90;99.90;;;;;;20886455;28;19912;-77
2023/05/23 08:47:01;;;;;;;;;;;20.50;99.90;;;;;;20886338;28;19999;-77
2023/05/23 08:57:38;;;;;;;;;;;21.10;99.90;;;;;;20893754;28;19919;-76
2023/05/23 09:07:55;;;;;;;;;;;21.40;99.90;;;;;;20871365;28;19921;-77
2023/05/23 09:18:00;;;;;;;;;;;21.80;99.90;;;;;;20885472;28;19956;-77
2023/05/23 09:28:03;;;;;;;;;;;21.30;99.90;;;;;;20885013;28;19908;-76
2023/05/23 09:38:06;;;;;;;;;;;21.20;99.90;;;;;;20883632;28;19912;-77
2023/05/23 09:48:10;;;;;;;;;;;21.80;99.90;;;;;;20915765;28;20007;-77
2023/05/23 09:58:11;;;;;;;;;;;22.30;99.90;;;;;;20917630;28;19912;-77
2023/05/23 10:08:30;;;;;;;;;;;24.30;99.90;;;;;;20920776;28;19951;-78
2023/05/23 10:18:33;;;;;;;;;;;24.50;99.90;;;;;;20920729;28;19944;-80
2023/05/23 10:28:34;;;;;;;;;;;25.40;99.90;;;;;;20882725;28;19915;-78
2023/05/23 10:38:34;;;;;;;;;;;24.50;99.90;;;;;;20922493;28;19924;-77
2023/05/23 10:48:40;;;;;;;;;;;23.70;99.90;;;;;;20919837;28;20015;-77
2023/05/23 10:58:40;;;;;;;;;;;22.90;99.90;;;;;;20900205;28;20396;-78
2023/05/23 11:08:44;;;;;;;;;;;22.50;99.90;;;;;;20894259;28;19912;-78
2023/05/23 11:18:45;;;;;;;;;;;21.00;99.90;;;;;;20904388;28;20298;-78
2023/05/23 11:28:55;;;;;;;;;;;19.50;99.90;;;;;;20900862;28;19912;-78
2023/05/23 11:39:00;;;;;;;;;;;18.60;99.90;;;;;;20926040;28;19919;-78
2023/05/23 11:49:01;;;;;;;;;;;19.00;99.90;;;;;;20904841;28;19959;-77
2023/05/23 11:59:01;;;;;;;;;;;18.50;99.90;;;;;;20910859;28;20374;-77
2023/05/23 12:09:02;;;;;;;;;;;17.70;99.90;;;;;;20912712;28;20390;-78
2023/05/23 12:19:03;;;;;;;;;;;17.50;99.90;;;;;;20892215;28;19913;-77
2023/05/23 12:29:04;;;;;;;;;;;18.40;99.90;;;;;;20923760;28;19909;-78
2023/05/23 12:39:05;;;;;;;;;;;19.40;99.90;;;;;;20926377;28;19919;-78
2023/05/23 12:49:05;;;;;;;;;;;20.00;99.90;;;;;;20911804;28;20469;-77
2023/05/23 12:59:06;;;;;;;;;;;20.70;99.90;;;;;;20917908;28;20367;-77
2023/05/23 13:09:08;;;;;;;;;;;20.60;99.90;;;;;;20930002;28;19913;-78
2023/05/23 13:19:08;;;;;;;;;;;20.40;99.90;;;;;;20925584;28;19919;-78
2023/05/23 13:29:09;;;;;;;;;;;20.80;99.90;;;;;;20946039;28;19909;-78
2023/05/23 13:39:10;;;;;;;;;;;21.20;99.90;;;;;;20926106;28;20007;-77
2023/05/23 13:49:10;;;;;;;;;;;20.70;99.90;;;;;;20938227;28;19958;-77
2023/05/23 13:59:11;;;;;;;;;;;21.10;99.90;;;;;;20935167;28;20268;-77
2023/05/23 14:09:11;;;;;;;;;;;21.40;99.90;;;;;;20936529;28;19963;-78
2023/05/23 14:19:12;;;;;;;;;;;21.60;99.90;;;;;;20925662;28;19913;-79
2023/05/23 14:29:13;;;;;;;;;;;22.30;99.90;;;;;;20910525;28;19940;-79
2023/05/23 14:39:14;;;;;;;;;;;23.20;99.90;;;;;;20898497;28;19920;-79
2023/05/23 14:49:16;;;;;;;;;;;22.70;99.90;;;;;;20929786;28;20408;-78
2023/05/23 14:59:16;;;;;;;;;;;21.00;99.90;;;;;;20906832;28;19912;-78
2023/05/23 15:09:17;;;;;;;;;;;20.00;99.90;;;;;;20923196;28;20293;-78
2023/05/23 15:19:18;;;;;;;;;;;19.70;99.90;;;;;;20918970;28;20394;-77
2023/05/23 15:29:22;;;;;;;;;;;19.20;99.90;;;;;;20895983;28;20089;-78
2023/05/23 15:39:25;;;;;;;;;;;19.10;99.90;;;;;;20905029;28;19916;-78
2023/05/23 15:49:26;;;;;;;;;;;19.50;99.90;;;;;;20904504;28;19999;-78
2023/05/23 15:59:26;;;;;;;;;;;19.60;99.90;;;;;;20908668;28;19912;-76
2023/05/23 16:09:27;;;;;;;;;;;19.60;99.90;;;;;;20905957;28;19935;-76
2023/05/23 16:19:28;;;;;;;;;;;19.30;99.90;;;;;;20894042;28;19920;-76
2023/05/23 16:29:28;;;;;;;;;;;19.60;99.90;;;;;;20895155;28;19908;-76
2023/05/23 16:39:29;;;;;;;;;;;20.00;99.90;;;;;;20879755;28;19955;-76
2023/05/23 16:49:30;;;;;;;;;;;19.90;99.90;;;;;;20896753;28;19940;-76
2023/05/23 16:59:31;;;;;;;;;;;19.90;99.90;;;;;;20898329;28;19962;-77
2023/05/23 17:09:32;;;;;;;;;;;20.20;99.90;;;;;;20896672;28;19912;-76
2023/05/23 17:19:34;;;;;;;;;;;18.80;99.90;;;;;;20891162;28;19965;-76
2023/05/23 17:29:35;;;;;;;;;;;18.20;99.90;;;;;;20879935;28;19909;-76
2023/05/23 17:39:35;;;;;;;;;;;17.80;99.90;;;;;;20892077;28;19924;-76
2023/05/23 17:49:37;;;;;;;;;;;17.90;99.90;;;;;;20896160;28;19913;-76
2023/05/23 17:59:38;;;;;;;;;;;17.60;99.90;;;;;;20896824;28;19912;-76
2023/05/23 18:09:38;;;;;;;;;;;17.30;99.90;;;;;;20897426;28;19920;-76
2023/05/23 18:19:40;;;;;;;;;;;17.30;99.90;;;;;;20907284;28;19920;-75
2023/05/23 18:29:41;;;;;;;;;;;17.20;99.90;;;;;;20901834;28;19926;-76
2023/05/23 18:39:41;;;;;;;;;;;17.20;99.90;;;;;;20901444;28;20012;-76
2023/05/23 18:49:42;;;;;;;;;;;16.90;99.90;;;;;;20906979;28;19996;-76
2023/05/23 18:59:43;;;;;;;;;;;16.70;99.90;;;;;;20905570;28;19920;-76
2023/05/23 19:09:43;;;;;;;;;;;16.80;99.90;;;;;;20900688;28;20295;-75
2023/05/23 19:19:45;;;;;;;;;;;16.70;99.90;;;;;;20878477;28;19962;-75
2023/05/23 19:29:45;;;;;;;;;;;16.70;99.90;;;;;;20904691;28;20047;-76
2023/05/23 19:39:47;;;;;;;;;;;16.40;99.90;;;;;;20901439;28;19948;-76
2023/05/23 19:49:47;;;;;;;;;;;16.30;99.90;;;;;;20878355;28;19915;-75
2023/05/23 19:59:48;;;;;;;;;;;16.10;99.90;;;;;;20898603;28;20447;-75
2023/05/23 20:09:48;;;;;;;;;;;16.10;99.90;;;;;;20877128;28;19916;-78
2023/05/23 20:19:49;;;;;;;;;;;15.90;99.90;;;;;;20890241;28;19923;-77
2023/05/23 20:29:50;;;;;;;;;;;15.90;99.90;;;;;;20909464;28;19916;-78
2023/05/23 20:39:51;;;;;;;;;;;15.80;99.90;;;;;;20912200;28;19917;-76
2023/05/23 20:49:51;;;;;;;;;;;15.90;99.90;;;;;;20932008;28;19982;-75
2023/05/23 20:59:52;;;;;;;;;;;15.90;99.90;;;;;;20920580;28;19917;-76
2023/05/23 21:09:53;;;;;;;;;;;15.70;99.90;;;;;;20932884;28;20394;-76
2023/05/23 21:19:53;;;;;;;;;;;15.90;99.90;;;;;;20909597;28;19913;-76
2023/05/23 21:29:54;;;;;;;;;;;15.80;99.90;;;;;;20900242;28;20093;-73
2023/05/23 21:39:55;;;;;;;;;;;15.70;99.90;;;;;;20928318;28;20701;-76
2023/05/23 21:49:55;;;;;;;;;;;15.60;99.90;;;;;;20932207;28;20407;-75
2023/05/23 21:59:56;;;;;;;;;;;15.20;99.90;;;;;;20918192;28;19919;-76
2023/05/23 22:09:57;;;;;;;;;;;15.10;99.90;;;;;;20943699;28;19951;-76
2023/05/23 22:19:59;;;;;;;;;;;15.00;99.90;;;;;;20921438;28;19913;-76
2023/05/23 22:30:00;;;;;;;;;;;14.80;99.90;;;;;;20944877;28;19954;-76
2023/05/23 22:40:00;;;;;;;;;;;14.80;99.90;;;;;;20916448;28;20347;-76
2023/05/23 22:50:01;;;;;;;;;;;14.80;99.90;;;;;;20916294;28;19958;-76
2023/05/23 23:00:03;;;;;;;;;;;14.80;99.90;;;;;;20915464;28;19913;-75
2023/05/23 23:10:07;;;;;;;;;;;14.70;99.90;;;;;;20886695;28;20295;-76
2023/05/23 23:20:08;;;;;;;;;;;14.80;99.90;;;;;;20905177;28;19912;-74
2023/05/23 23:30:09;;;;;;;;;;;14.70;99.90;;;;;;20898103;28;19970;-75
2023/05/23 23:40:10;;;;;;;;;;;14.60;99.90;;;;;;20896223;28;19916;-74
2023/05/23 23:50:12;;;;;;;;;;;14.50;99.90;;;;;;20896019;28;19920;-76
